Time;durP1;ratioP1;P1;durP2;ratioP2;P2;SDS_P1;SDS_P2;PMS_P1;PMS_P2;Temp;Humidity;BMP_temperature;BMP_pressure;BME280_temperature;BME280_humidity;BME280_pressure;Samples;Min_cycle;Max_cycle;Signal;HPM_P1;HPM_P2
2023/04/26 00:02:22;;;;;;;3.70;1.53;;;6.20;99.90;;;;;;5028534;28;20287;-73
2023/04/26 00:04:54;;;;;;;15.50;3.00;;;6.00;99.90;;;;;;5029826;28;20246;-74
2023/04/26 00:07:24;;;;;;;5.97;2.50;;;6.10;99.90;;;;;;5029844;28;20212;-73
2023/04/26 00:09:51;;;;;;;5.67;2.10;;;6.20;99.90;;;;;;5028342;28;20180;-74
2023/04/26 00:12:17;;;;;;;5.97;1.57;;;6.10;99.90;;;;;;5030344;28;20210;-73
2023/04/26 00:14:43;;;;;;;5.23;1.57;;;6.10;99.90;;;;;;5029513;28;20694;-74
2023/04/26 00:17:09;;;;;;;5.93;1.90;;;6.10;99.90;;;;;;5029216;28;20208;-72
2023/04/26 00:19:35;;;;;;;4.23;1.63;;;6.10;99.90;;;;;;5029116;28;20208;-71
2023/04/26 00:22:01;;;;;;;5.90;1.77;;;5.90;99.90;;;;;;5029762;28;20176;-74
2023/04/26 00:24:27;;;;;;;9.90;1.60;;;6.00;99.90;;;;;;5025833;28;20178;-72
2023/04/26 00:26:56;;;;;;;6.83;1.80;;;5.80;99.90;;;;;;5029537;28;20216;-73
2023/04/26 00:29:21;;;;;;;7.23;1.50;;;5.90;99.90;;;;;;5029236;28;20704;-74
2023/04/26 00:31:47;;;;;;;6.83;2.07;;;5.90;99.90;;;;;;5029372;28;20239;-73
2023/04/26 00:34:13;;;;;;;10.17;2.00;;;6.00;99.90;;;;;;5028755;28;20227;-72
2023/04/26 00:36:38;;;;;;;13.17;1.70;;;5.80;99.90;;;;;;5045325;28;20204;-74
2023/04/26 00:39:04;;;;;;;6.83;1.90;;;5.70;99.90;;;;;;5029199;28;20200;-74
2023/04/26 00:41:30;;;;;;;2.80;1.60;;;5.70;99.90;;;;;;5029386;28;20204;-74
2023/04/26 00:43:55;;;;;;;6.43;1.80;;;5.70;99.90;;;;;;5029314;28;20246;-72
2023/04/26 00:46:21;;;;;;;7.00;1.77;;;5.70;99.90;;;;;;5047922;28;20593;-74
2023/04/26 00:48:47;;;;;;;5.10;1.77;;;5.70;99.90;;;;;;5032521;28;20199;-73
2023/04/26 00:51:14;;;;;;;6.17;1.73;;;5.50;99.90;;;;;;5033419;28;20628;-73
2023/04/26 00:53:41;;;;;;;5.63;1.57;;;5.70;99.90;;;;;;5032729;28;20699;-73
2023/04/26 00:56:09;;;;;;;13.80;1.77;;;5.60;99.90;;;;;;5033223;28;20207;-74
2023/04/26 00:58:36;;;;;;;6.57;1.70;;;5.60;99.90;;;;;;5028693;28;20212;-74
2023/04/26 01:01:01;;;;;;;6.80;1.60;;;5.60;99.90;;;;;;5025324;28;20258;-72
2023/04/26 01:03:28;;;;;;;7.73;1.80;;;5.50;99.90;;;;;;5030067;28;20315;-73
2023/04/26 01:05:54;;;;;;;3.33;1.60;;;5.40;99.90;;;;;;5031143;28;20296;-75
2023/04/26 01:08:20;;;;;;;4.33;1.40;;;5.40;99.90;;;;;;5032585;28;20354;-74
2023/04/26 01:10:47;;;;;;;11.13;2.20;;;5.40;99.90;;;;;;5033014;28;20271;-73
2023/04/26 01:13:15;;;;;;;10.10;2.47;;;5.40;99.90;;;;;;5032583;28;20797;-76
2023/04/26 01:15:47;;;;;;;7.20;1.97;;;5.40;99.90;;;;;;5033311;28;20184;-76
2023/04/26 01:18:14;;;;;;;5.53;2.20;;;5.40;99.90;;;;;;5029338;28;20224;-74
2023/04/26 01:20:40;;;;;;;10.67;2.40;;;5.40;99.90;;;;;;5032508;28;20299;-73
2023/04/26 01:23:07;;;;;;;5.27;1.40;;;5.40;99.90;;;;;;5032750;28;20214;-73
2023/04/26 01:25:33;;;;;;;9.47;1.37;;;5.30;99.90;;;;;;5030933;28;20223;-73
2023/04/26 01:27:59;;;;;;;8.67;1.80;;;5.30;99.90;;;;;;5032234;28;20581;-73
2023/04/26 01:30:25;;;;;;;6.67;1.90;;;5.30;99.90;;;;;;5033620;28;20183;-72
2023/04/26 01:32:50;;;;;;;8.57;2.30;;;5.40;99.90;;;;;;5032339;28;20270;-73
2023/04/26 01:35:16;;;;;;;7.53;2.63;;;5.40;99.90;;;;;;5033052;28;20208;-74
2023/04/26 01:37:42;;;;;;;6.80;1.70;;;5.30;99.90;;;;;;5032596;28;20231;-74
2023/04/26 01:40:08;;;;;;;11.10;2.73;;;5.40;99.90;;;;;;5031707;28;20230;-72
2023/04/26 01:42:34;;;;;;;5.40;1.63;;;5.20;99.90;;;;;;5033140;28;20184;-74
2023/04/26 01:45:00;;;;;;;8.60;2.20;;;5.20;99.90;;;;;;5033883;28;20220;-74
2023/04/26 01:47:26;;;;;;;5.90;1.67;;;5.30;99.90;;;;;;5032990;28;20204;-73
2023/04/26 01:49:52;;;;;;;4.50;1.80;;;5.10;99.90;;;;;;5031153;28;20214;-73
2023/04/26 01:52:17;;;;;;;5.40;1.57;;;5.10;99.90;;;;;;5032413;28;20215;-73
2023/04/26 01:54:43;;;;;;;8.00;1.57;;;5.10;99.90;;;;;;5030814;28;20643;-74
2023/04/26 01:57:09;;;;;;;7.73;1.90;;;5.20;99.90;;;;;;5031895;28;20349;-74
2023/04/26 01:59:34;;;;;;;9.33;2.10;;;5.00;99.90;;;;;;5031632;28;20200;-74
2023/04/26 02:02:00;;;;;;;7.93;1.97;;;5.10;99.90;;;;;;5031638;28;20285;-71
2023/04/26 02:04:27;;;;;;;16.20;2.27;;;5.20;99.90;;;;;;5047101;28;20682;-72
2023/04/26 02:06:52;;;;;;;4.93;1.83;;;5.10;99.90;;;;;;5032144;28;20202;-73
2023/04/26 02:09:18;;;;;;;9.43;2.00;;;5.10;99.90;;;;;;5030409;28;20234;-76
2023/04/26 02:11:44;;;;;;;7.00;1.60;;;5.10;99.90;;;;;;5031386;28;20273;-73
2023/04/26 02:14:09;;;;;;;7.50;2.10;;;5.00;99.90;;;;;;5031861;28;20246;-74
2023/04/26 02:16:35;;;;;;;6.53;1.70;;;4.90;99.90;;;;;;5031423;28;20246;-74
2023/04/26 02:19:04;;;;;;;9.37;2.07;;;4.90;99.90;;;;;;5026995;28;20188;-73
2023/04/26 02:21:29;;;;;;;7.77;1.70;;;4.90;99.90;;;;;;5031812;28;20228;-73
2023/04/26 02:23:56;;;;;;;5.23;2.07;;;4.80;99.90;;;;;;5029617;28;20636;-73
2023/04/26 02:26:21;;;;;;;6.90;1.97;;;4.90;99.90;;;;;;5026793;28;20230;-74
2023/04/26 02:28:47;;;;;;;5.00;1.70;;;4.80;99.90;;;;;;5030428;28;20692;-74
2023/04/26 02:31:13;;;;;;;7.40;2.13;;;4.90;99.90;;;;;;5031108;28;20584;-74
2023/04/26 02:33:39;;;;;;;12.50;2.20;;;4.90;99.90;;;;;;5031726;28;20190;-75
2023/04/26 02:36:05;;;;;;;6.60;1.77;;;4.90;99.90;;;;;;5029503;28;20223;-72
2023/04/26 02:38:35;;;;;;;6.87;1.73;;;4.70;99.90;;;;;;5030477;28;20229;-74
2023/04/26 02:41:02;;;;;;;6.40;1.73;;;4.70;99.90;;;;;;5030666;28;20292;-74
2023/04/26 02:43:28;;;;;;;6.03;2.00;;;4.70;99.90;;;;;;5024343;28;20288;-72
2023/04/26 02:45:53;;;;;;;11.23;2.30;;;4.60;99.90;;;;;;5027597;28;20186;-72
2023/04/26 02:48:19;;;;;;;7.83;2.23;;;4.70;99.90;;;;;;5028684;28;20561;-74
2023/04/26 02:50:46;;;;;;;6.30;1.80;;;4.70;99.90;;;;;;5030350;28;20697;-73
2023/04/26 02:53:12;;;;;;;6.20;1.80;;;4.70;99.90;;;;;;5030387;28;20209;-73
2023/04/26 02:55:38;;;;;;;6.57;2.00;;;4.60;99.90;;;;;;5045849;28;20294;-71
2023/04/26 02:58:03;;;;;;;8.03;1.83;;;4.60;99.90;;;;;;5026050;28;20211;-74
2023/04/26 03:00:29;;;;;;;10.10;1.93;;;4.60;99.90;;;;;;5029592;28;20193;-74
2023/04/26 03:02:55;;;;;;;7.87;2.07;;;4.60;99.90;;;;;;5025192;28;20245;-74
2023/04/26 03:05:21;;;;;;;6.73;1.57;;;4.60;99.90;;;;;;5029115;28;20218;-74
2023/04/26 03:07:47;;;;;;;7.20;2.60;;;4.50;99.90;;;;;;5026265;28;20218;-73
2023/04/26 03:10:13;;;;;;;7.87;1.77;;;4.50;99.90;;;;;;5021894;28;20228;-74
2023/04/26 03:12:38;;;;;;;6.17;1.93;;;4.50;99.90;;;;;;5026240;28;20241;-74
2023/04/26 03:15:04;;;;;;;10.63;3.10;;;4.50;99.90;;;;;;5029681;28;20215;-74
2023/04/26 03:17:30;;;;;;;8.13;1.63;;;4.50;99.90;;;;;;5029777;28;20298;-74
2023/04/26 03:19:56;;;;;;;7.03;1.90;;;4.50;99.90;;;;;;5028285;28;20656;-74
2023/04/26 03:22:21;;;;;;;6.83;2.03;;;4.60;99.90;;;;;;5030166;28;20298;-74
2023/04/26 03:24:48;;;;;;;9.03;2.10;;;4.60;99.90;;;;;;5026933;28;20182;-73
2023/04/26 03:27:13;;;;;;;15.80;3.20;;;4.60;99.90;;;;;;5030407;28;20320;-73
2023/04/26 03:29:39;;;;;;;5.70;1.60;;;4.60;99.90;;;;;;5029321;28;20277;-74
2023/04/26 03:32:05;;;;;;;4.93;1.80;;;4.60;99.90;;;;;;5027651;28;20225;-75
2023/04/26 03:34:31;;;;;;;5.00;2.03;;;4.50;99.90;;;;;;5024552;28;20223;-74
2023/04/26 03:36:57;;;;;;;13.53;1.90;;;4.60;99.90;;;;;;5020720;28;20338;-74
2023/04/26 03:39:22;;;;;;;9.40;2.00;;;4.50;99.90;;;;;;5030043;28;20176;-74
2023/04/26 03:41:48;;;;;;;6.13;1.90;;;4.50;99.90;;;;;;5026464;28;20658;-73
2023/04/26 03:44:14;;;;;;;8.70;2.17;;;4.50;99.90;;;;;;5029559;28;20202;-74
2023/04/26 03:46:40;;;;;;;7.03;1.93;;;4.50;99.90;;;;;;5029704;28;20234;-74
2023/04/26 03:49:05;;;;;;;9.67;2.53;;;4.50;99.90;;;;;;5026949;28;20211;-73
2023/04/26 03:51:31;;;;;;;9.87;2.53;;;4.60;99.90;;;;;;5030207;28;20183;-72
2023/04/26 03:53:57;;;;;;;9.07;1.93;;;4.60;99.90;;;;;;5024702;28;20216;-74
2023/04/26 03:56:23;;;;;;;11.23;2.10;;;4.50;99.90;;;;;;5029643;28;20650;-74
2023/04/26 03:58:49;;;;;;;5.75;2.35;;;4.50;99.90;;;;;;5026893;28;20449;-73
2023/04/26 04:01:15;;;;;;;7.37;2.70;;;4.40;99.90;;;;;;5028822;28;20550;-73
2023/04/26 04:03:41;;;;;;;9.37;2.10;;;4.40;99.90;;;;;;5030166;28;20265;-73
2023/04/26 04:06:06;;;;;;;9.77;2.07;;;4.50;99.90;;;;;;5028701;28;20222;-74
2023/04/26 04:08:32;;;;;;;10.63;1.80;;;4.50;99.90;;;;;;5029056;28;20294;-74
2023/04/26 04:10:58;;;;;;;12.60;2.73;;;4.60;99.90;;;;;;5029244;28;20215;-74
2023/04/26 04:13:24;;;;;;;14.20;2.37;;;4.60;99.90;;;;;;5029805;28;20204;-73
2023/04/26 04:15:50;;;;;;;8.70;2.93;;;4.70;99.90;;;;;;5027565;28;20665;-72
2023/04/26 04:18:16;;;;;;;8.97;2.40;;;4.80;99.90;;;;;;5025174;28;20195;-74
2023/04/26 04:20:41;;;;;;;8.70;1.67;;;4.90;99.90;;;;;;5034425;28;20234;-74
2023/04/26 04:23:08;;;;;;;10.13;2.23;;;4.80;99.90;;;;;;5050262;28;20220;-74
2023/04/26 04:25:34;;;;;;;9.63;2.00;;;4.80;99.90;;;;;;5042104;28;20589;-75
2023/04/26 04:28:00;;;;;;;6.77;2.17;;;4.80;99.90;;;;;;5036242;28;20208;-74
2023/04/26 04:30:29;;;;;;;7.80;2.00;;;5.00;99.90;;;;;;5039584;28;20178;-73
2023/04/26 04:32:58;;;;;;;4.20;2.10;;;5.10;99.90;;;;;;5036744;28;20211;-74
2023/04/26 04:35:27;;;;;;;7.37;2.20;;;5.70;99.90;;;;;;5032172;28;20274;-75
2023/04/26 04:37:55;;;;;;;5.40;1.93;;;6.10;99.90;;;;;;5034390;28;20255;-74
2023/04/26 04:40:21;;;;;;;5.40;2.30;;;6.50;99.90;;;;;;5034161;28;20201;-72
2023/04/26 04:42:48;;;;;;;6.27;2.27;;;7.00;99.90;;;;;;5034211;28;20272;-74
2023/04/26 04:45:13;;;;;;;7.70;1.77;;;7.40;99.90;;;;;;5034867;28;20191;-74
2023/04/26 04:47:39;;;;;;;10.07;2.00;;;7.50;99.90;;;;;;5035602;28;20234;-74
2023/04/26 04:50:06;;;;;;;8.50;2.27;;;8.00;99.90;;;;;;5031228;28;20204;-74
2023/04/26 04:52:34;;;;;;;6.13;1.80;;;8.50;99.90;;;;;;5034048;28;20204;-73
2023/04/26 04:55:00;;;;;;;7.40;2.33;;;9.00;99.90;;;;;;5032768;28;20181;-74
2023/04/26 04:57:26;;;;;;;5.47;1.83;;;9.30;99.90;;;;;;5033431;28;20302;-74
2023/04/26 04:59:52;;;;;;;8.07;2.47;;;10.20;99.90;;;;;;5032385;28;20235;-71
2023/04/26 05:02:18;;;;;;;4.53;2.13;;;10.30;99.90;;;;;;5031447;28;20228;-77
2023/04/26 05:04:44;;;;;;;5.03;2.10;;;10.00;99.90;;;;;;5032848;28;20205;-76
2023/04/26 05:07:10;;;;;;;9.60;2.15;;;10.10;99.90;;;;;;5032571;28;20216;-74
2023/04/26 05:09:36;;;;;;;7.53;2.17;;;10.60;99.90;;;;;;5032730;28;20168;-75
2023/04/26 05:12:02;;;;;;;8.75;2.28;;;10.20;99.90;;;;;;5032068;28;20575;-74
2023/04/26 05:14:29;;;;;;;7.70;1.98;;;11.00;99.90;;;;;;5032630;28;20272;-73
2023/04/26 05:16:54;;;;;;;4.00;2.60;;;11.00;99.90;;;;;;5032299;28;20216;-74
2023/04/26 05:19:20;;;;;;;6.50;2.40;;;11.00;99.90;;;;;;5030749;28;20581;-74
2023/04/26 05:21:46;;;;;;;6.35;1.95;;;10.70;99.90;;;;;;5032482;28;20185;-75
2023/04/26 05:24:11;;;;;;;4.90;2.60;;;10.70;99.90;;;;;;5032348;28;20257;-74
2023/04/26 05:26:37;;;;;;;7.47;2.30;;;11.00;99.90;;;;;;5030514;28;20239;-74
2023/04/26 05:29:02;;;;;;;7.38;2.20;;;11.30;99.90;;;;;;5031431;28;20211;-74
2023/04/26 05:31:28;;;;;;;8.57;2.20;;;12.30;99.90;;;;;;5031273;28;20690;-74
2023/04/26 05:33:54;;;;;;;6.60;2.40;;;12.70;99.90;;;;;;5030589;28;20204;-73
2023/04/26 05:36:20;;;;;;;10.95;2.85;;;13.70;99.90;;;;;;5032723;28;20192;-74
2023/04/26 05:38:45;;;;;;;9.27;2.22;;;13.10;99.90;;;;;;5030888;28;20216;-75
2023/04/26 05:41:11;;;;;;;8.30;2.58;;;12.90;99.90;;;;;;5031680;28;20592;-75
2023/04/26 05:43:37;;;;;;;6.32;2.00;;;12.80;99.90;;;;;;5026759;28;20211;-75
2023/04/26 05:46:02;;;;;;;8.63;2.38;;;12.30;99.90;;;;;;5030574;28;20196;-73
2023/04/26 05:48:28;;;;;;;10.30;2.45;;;12.10;99.90;;;;;;5032157;28;20550;-74
2023/04/26 05:50:54;;;;;;;7.78;2.80;;;12.20;99.90;;;;;;5030343;28;20213;-73
2023/04/26 05:53:20;;;;;;;8.93;2.78;;;13.00;99.90;;;;;;5031635;28;20209;-74
2023/04/26 05:55:46;;;;;;;10.07;2.67;;;12.70;99.90;;;;;;5030200;28;20295;-75
2023/04/26 05:58:12;;;;;;;4.53;2.17;;;12.40;99.90;;;;;;5030987;28;20293;-74
2023/04/26 06:00:37;;;;;;;9.73;2.60;;;12.80;99.90;;;;;;5032448;28;20184;-75
2023/04/26 06:03:04;;;;;;;7.03;2.67;;;12.70;99.90;;;;;;5031623;28;20262;-75
2023/04/26 06:05:30;;;;;;;5.47;2.08;;;12.70;99.90;;;;;;5031452;28;20619;-75
2023/04/26 06:07:56;;;;;;;5.95;2.13;;;11.80;99.90;;;;;;5046046;28;20218;-73
2023/04/26 06:10:22;;;;;;;8.57;2.40;;;11.90;99.90;;;;;;5031350;28;20629;-74
2023/04/26 06:12:48;;;;;;;8.68;2.35;;;12.10;99.90;;;;;;5031608;28;20184;-73
2023/04/26 06:15:14;;;;;;;7.47;2.85;;;11.80;99.90;;;;;;5030714;28;20180;-75
2023/04/26 06:17:40;;;;;;;6.65;2.35;;;12.60;99.90;;;;;;5031657;28;20703;-74
2023/04/26 06:20:08;;;;;;;5.60;1.90;;;13.60;99.90;;;;;;5030900;28;20631;-75
2023/04/26 06:22:33;;;;;;;7.93;2.30;;;13.90;99.90;;;;;;5031145;28;20200;-75
2023/04/26 06:24:59;;;;;;;5.97;1.80;;;13.90;99.90;;;;;;5031006;28;20192;-73
2023/04/26 06:27:25;;;;;;;5.40;2.22;;;14.20;99.90;;;;;;5028317;28;20213;-75
2023/04/26 06:29:51;;;;;;;6.60;2.20;;;14.80;99.90;;;;;;5030893;28;20563;-75
2023/04/26 06:32:16;;;;;;;5.03;1.92;;;15.40;99.90;;;;;;5029543;28;20211;-76
2023/04/26 06:34:44;;;;;;;6.30;2.40;;;15.90;99.90;;;;;;5031140;28;20212;-74
2023/04/26 06:37:10;;;;;;;9.27;2.22;;;15.60;99.90;;;;;;5030518;28;20246;-75
2023/04/26 06:39:37;;;;;;;6.97;2.33;;;14.10;99.90;;;;;;5030859;28;20180;-74
2023/04/26 06:42:03;;;;;;;9.75;2.60;;;14.70;99.90;;;;;;5030055;28;20212;-73
2023/04/26 06:44:29;;;;;;;9.43;2.45;;;14.30;99.90;;;;;;5030725;28;20270;-74
2023/04/26 06:46:55;;;;;;;7.32;2.30;;;15.40;99.90;;;;;;5030877;28;20208;-75
2023/04/26 06:49:21;;;;;;;5.93;2.05;;;14.80;99.90;;;;;;5031566;28;20204;-75
2023/04/26 06:51:47;;;;;;;7.45;2.35;;;15.90;99.90;;;;;;5030854;28;20259;-75
2023/04/26 06:54:12;;;;;;;8.88;2.47;;;15.60;99.90;;;;;;5030392;28;20259;-75
2023/04/26 06:56:38;;;;;;;8.32;2.70;;;15.20;99.90;;;;;;5030895;28;20219;-74
2023/04/26 06:59:05;;;;;;;5.70;1.98;;;15.00;99.90;;;;;;5030258;28;20208;-75
2023/04/26 07:01:32;;;;;;;4.25;1.98;;;15.10;99.90;;;;;;5030662;28;20227;-75
2023/04/26 07:04:02;;;;;;;7.00;3.67;;;15.50;99.90;;;;;;5030334;28;20227;-74
2023/04/26 07:06:28;;;;;;;7.38;2.38;;;15.20;99.90;;;;;;5029436;28;20192;-74
2023/04/26 07:08:54;;;;;;;7.18;2.53;;;13.60;99.90;;;;;;5028935;28;20300;-74
2023/04/26 07:11:20;;;;;;;6.88;2.10;;;14.30;99.90;;;;;;5030403;28;20294;-74
2023/04/26 07:13:46;;;;;;;8.70;2.97;;;13.80;99.90;;;;;;5029167;28;20580;-75
2023/04/26 07:16:12;;;;;;;7.50;2.13;;;14.40;99.90;;;;;;5030410;28;20307;-75
2023/04/26 07:18:39;;;;;;;4.13;1.70;;;15.10;99.90;;;;;;5030306;28;20232;-74
2023/04/26 07:21:04;;;;;;;5.47;2.45;;;14.30;99.90;;;;;;5029914;28;20231;-74
2023/04/26 07:23:31;;;;;;;6.55;2.25;;;14.20;99.90;;;;;;5030445;28;20212;-75
2023/04/26 07:25:56;;;;;;;9.45;3.00;;;14.40;99.90;;;;;;5030146;28;20589;-75
2023/04/26 07:28:22;;;;;;;9.18;2.83;;;15.20;99.90;;;;;;5029703;28;20204;-75
2023/04/26 07:30:47;;;;;;;8.57;2.60;;;16.30;99.90;;;;;;5030386;28;20176;-75
2023/04/26 07:33:13;;;;;;;6.93;3.03;;;16.30;99.90;;;;;;5030252;28;20176;-75
2023/04/26 07:35:39;;;;;;;8.93;2.10;;;16.60;99.90;;;;;;5030146;28;20402;-74
2023/04/26 07:38:05;;;;;;;6.05;2.42;;;16.20;99.90;;;;;;5029435;28;20212;-74
2023/04/26 07:40:31;;;;;;;13.38;1.85;;;17.20;99.90;;;;;;5029934;28;20258;-75
2023/04/26 07:42:57;;;;;;;6.43;1.63;;;15.90;99.90;;;;;;5036405;28;20188;-75
2023/04/26 07:45:23;;;;;;;9.82;2.63;;;13.70;99.90;;;;;;5030555;28;20581;-75
2023/04/26 07:47:49;;;;;;;9.73;2.60;;;13.40;99.90;;;;;;5030049;28;20277;-75
2023/04/26 07:50:14;;;;;;;5.47;2.03;;;13.40;99.90;;;;;;5028280;28;20208;-75
2023/04/26 07:52:42;;;;;;;5.10;1.63;;;13.70;99.90;;;;;;5028071;28;20758;-73
2023/04/26 07:55:08;;;;;;;6.57;1.75;;;13.90;99.90;;;;;;5033100;28;20242;-73
2023/04/26 07:57:33;;;;;;;7.68;2.08;;;13.00;99.90;;;;;;5033311;28;20195;-75
2023/04/26 07:59:59;;;;;;;9.82;2.45;;;12.60;99.90;;;;;;5033106;28;20560;-74
2023/04/26 08:02:25;;;;;;;7.53;2.60;;;12.10;99.90;;;;;;5032343;28;20241;-74
2023/04/26 08:04:54;;;;;;;9.23;2.38;;;11.40;99.90;;;;;;5034094;28;20216;-75
2023/04/26 08:07:20;;;;;;;7.18;2.22;;;10.90;99.90;;;;;;5033536;28;20211;-74
2023/04/26 08:09:47;;;;;;;5.05;1.70;;;11.30;99.90;;;;;;5033477;28;20187;-74
2023/04/26 08:12:13;;;;;;;8.50;2.27;;;11.30;99.90;;;;;;5033980;28;20177;-72
2023/04/26 08:14:39;;;;;;;5.47;2.60;;;10.70;99.90;;;;;;5033880;28;20824;-74
2023/04/26 08:17:07;;;;;;;9.70;2.57;;;10.50;99.90;;;;;;5048870;28;20593;-75
2023/04/26 08:19:33;;;;;;;6.50;2.20;;;10.30;99.90;;;;;;5033095;28;20250;-73
2023/04/26 08:21:59;;;;;;;8.37;2.13;;;10.40;99.90;;;;;;5033402;28;20594;-75
2023/04/26 08:24:24;;;;;;;5.73;1.93;;;10.90;99.90;;;;;;5033643;28;20200;-74
2023/04/26 08:26:50;;;;;;;5.53;2.07;;;10.70;99.90;;;;;;5048580;28;20220;-75
2023/04/26 08:29:16;;;;;;;6.73;1.67;;;11.00;99.90;;;;;;5029963;28;20706;-74
2023/04/26 08:31:41;;;;;;;10.03;2.40;;;10.60;99.90;;;;;;5033400;28;20214;-74
2023/04/26 08:34:12;;;;;;;5.37;2.00;;;10.50;99.90;;;;;;5032900;28;20208;-73
2023/04/26 08:36:38;;;;;;;6.60;2.17;;;10.20;99.90;;;;;;5032621;28;20211;-75
2023/04/26 08:39:04;;;;;;;7.57;2.27;;;10.00;99.90;;;;;;5032698;28;20220;-73
2023/04/26 08:41:35;;;;;;;7.47;2.37;;;9.50;99.90;;;;;;5031681;28;20733;-73
2023/04/26 08:44:04;;;;;;;4.80;2.13;;;10.00;99.90;;;;;;5033090;28;20299;-75
2023/04/26 08:46:54;;;;;;;9.27;2.47;;;10.40;99.90;;;;;;5029556;28;20209;-74
2023/04/26 08:49:34;;;;;;;5.10;1.80;;;11.10;99.90;;;;;;5032349;28;20212;-75
2023/04/26 08:52:02;;;;;;;6.40;2.13;;;11.30;99.90;;;;;;5022644;28;20176;-75
2023/04/26 08:54:29;;;;;;;7.25;2.10;;;11.20;99.90;;;;;;5031756;28;20522;-73
2023/04/26 08:56:58;;;;;;;7.30;2.00;;;11.40;99.90;;;;;;5032781;28;20204;-73
2023/04/26 08:59:24;;;;;;;7.43;1.83;;;11.60;99.90;;;;;;5032229;28;20208;-75
2023/04/26 09:01:50;;;;;;;3.97;1.50;;;11.40;99.90;;;;;;5032854;28;20227;-76
2023/04/26 09:04:16;;;;;;;6.20;2.13;;;11.10;99.90;;;;;;5032722;28;20556;-75
2023/04/26 09:06:43;;;;;;;7.03;1.63;;;10.70;99.90;;;;;;5030757;28;20211;-75
2023/04/26 09:09:12;;;;;;;9.87;2.40;;;10.30;99.90;;;;;;5031883;28;20322;-74
2023/04/26 09:11:58;;;;;;;6.67;2.10;;;10.10;99.90;;;;;;5030986;28;20266;-75
2023/04/26 09:14:25;;;;;;;5.77;1.70;;;10.50;99.90;;;;;;5032267;28;20212;-75
2023/04/26 09:16:51;;;;;;;5.50;1.40;;;11.00;99.90;;;;;;5032455;28;20749;-75
2023/04/26 09:19:17;;;;;;;4.50;1.83;;;11.50;99.90;;;;;;5031602;28;20208;-74
2023/04/26 09:21:44;;;;;;;8.37;3.80;;;11.40;99.90;;;;;;5033053;28;20176;-73
2023/04/26 09:24:10;;;;;;;5.73;1.70;;;10.80;99.90;;;;;;5032031;28;20208;-74
2023/04/26 09:26:36;;;;;;;7.13;1.90;;;10.90;99.90;;;;;;5031994;28;20219;-75
2023/04/26 09:29:16;;;;;;;8.43;1.57;;;10.70;99.90;;;;;;5031544;28;20211;-74
2023/04/26 09:31:44;;;;;;;7.40;2.17;;;11.00;99.90;;;;;;5030650;28;20212;-75
2023/04/26 09:34:13;;;;;;;4.03;2.07;;;11.20;99.90;;;;;;5046956;28;20581;-74
2023/04/26 09:36:55;;;;;;;6.17;2.07;;;11.60;99.90;;;;;;5032121;28;20197;-75
2023/04/26 09:39:39;;;;;;;4.50;1.37;;;11.80;99.90;;;;;;5029045;28;20701;-73
2023/04/26 09:42:08;;;;;;;6.13;1.87;;;11.30;99.90;;;;;;5031907;28;20639;-75
2023/04/26 09:44:34;;;;;;;5.77;1.60;;;11.30;99.90;;;;;;5030962;28;20239;-75
2023/04/26 09:47:04;;;;;;;4.80;1.47;;;11.80;99.90;;;;;;5031867;28;20212;-74
2023/04/26 09:49:50;;;;;;;5.53;1.48;;;11.90;99.90;;;;;;5031435;28;20590;-74
2023/04/26 09:52:17;;;;;;;3.13;1.48;;;11.80;99.90;;;;;;5029479;28;20212;-74
2023/04/26 09:54:48;;;;;;;5.17;1.63;;;11.60;99.90;;;;;;5032196;28;20176;-73
2023/04/26 09:57:15;;;;;;;4.87;1.40;;;11.30;99.90;;;;;;5030458;28;20216;-75
2023/04/26 09:59:45;;;;;;;4.40;1.60;;;11.20;99.90;;;;;;5030175;28;20287;-75
2023/04/26 10:02:17;;;;;;;3.17;1.20;;;11.20;99.90;;;;;;5031454;28;20212;-73
2023/04/26 10:04:48;;;;;;;7.17;1.70;;;10.90;99.90;;;;;;5031968;28;20695;-74
2023/04/26 10:07:15;;;;;;;7.43;1.77;;;10.90;99.90;;;;;;5046942;28;20280;-73
2023/04/26 10:09:40;;;;;;;6.33;1.57;;;11.00;99.90;;;;;;5031800;28;20179;-75
2023/04/26 10:12:09;;;;;;;5.47;1.60;;;10.90;99.90;;;;;;5031345;28;20209;-75
2023/04/26 10:14:35;;;;;;;5.20;1.87;;;11.40;99.90;;;;;;5024940;28;20551;-75
2023/04/26 10:17:03;;;;;;;6.90;2.00;;;11.90;99.90;;;;;;5031409;28;20220;-75
2023/04/26 10:19:31;;;;;;;4.70;1.83;;;12.10;99.90;;;;;;5030945;28;20209;-73
2023/04/26 10:22:02;;;;;;;5.77;1.57;;;11.90;99.90;;;;;;5031308;28;20181;-75
2023/04/26 10:24:28;;;;;;;6.40;1.60;;;11.50;99.90;;;;;;5030964;28;20565;-73
2023/04/26 10:26:58;;;;;;;5.00;2.00;;;10.80;99.90;;;;;;5031759;28;20220;-73
2023/04/26 10:29:26;;;;;;;4.17;1.80;;;10.90;99.90;;;;;;5029680;28;20207;-74
2023/04/26 10:32:01;;;;;;;7.23;2.40;;;10.90;99.90;;;;;;5031389;28;20641;-74
2023/04/26 10:34:27;;;;;;;6.80;1.93;;;10.70;99.90;;;;;;5029709;28;20596;-73
2023/04/26 10:37:15;;;;;;;5.30;1.70;;;10.30;99.90;;;;;;5030962;28;20203;-75
2023/04/26 10:39:45;;;;;;;3.43;1.47;;;10.20;99.90;;;;;;5028582;28;20172;-74
2023/04/26 10:42:24;;;;;;;4.33;1.77;;;10.30;99.90;;;;;;5030839;28;20697;-73
2023/04/26 10:44:52;;;;;;;9.50;1.70;;;10.40;99.90;;;;;;5029698;28;20207;-75
2023/04/26 10:47:28;;;;;;;2.90;2.10;;;10.60;99.90;;;;;;5030319;28;20212;-74
2023/04/26 10:50:06;;;;;;;5.00;2.00;;;10.90;99.90;;;;;;5030702;28;20596;-73
2023/04/26 10:52:32;;;;;;;5.43;2.17;;;11.00;99.90;;;;;;5030278;28;20250;-73
2023/04/26 10:54:58;;;;;;;7.60;2.20;;;11.10;99.90;;;;;;5031091;28;20184;-74
2023/04/26 10:57:48;;;;;;;5.00;2.03;;;11.10;99.90;;;;;;5031125;28;20583;-72
2023/04/26 11:00:19;;;;;;;5.27;2.37;;;11.00;99.90;;;;;;5030497;28;20270;-73
2023/04/26 11:02:51;;;;;;;4.13;2.37;;;10.90;99.90;;;;;;5030404;28;20237;-74
2023/04/26 11:05:37;;;;;;;9.03;2.10;;;10.70;99.90;;;;;;5022196;28;20211;-74
2023/04/26 11:08:15;;;;;;;6.57;2.60;;;10.50;99.90;;;;;;5029964;28;20208;-74
2023/04/26 11:10:41;;;;;;;6.53;2.10;;;10.50;99.90;;;;;;5030703;28;20287;-75
2023/04/26 11:13:07;;;;;;;10.77;2.50;;;10.60;99.90;;;;;;5030173;28;20208;-74
2023/04/26 11:15:33;;;;;;;11.00;2.43;;;10.50;99.90;;;;;;5030718;28;20644;-75
2023/04/26 11:18:03;;;;;;;6.87;2.30;;;10.60;99.90;;;;;;5030148;28;20235;-72
2023/04/26 11:20:32;;;;;;;6.83;2.53;;;10.50;99.90;;;;;;5030084;28;20226;-73
2023/04/26 11:22:59;;;;;;;6.87;2.87;;;10.50;99.90;;;;;;5028246;28;20212;-74
2023/04/26 11:25:27;;;;;;;7.23;2.87;;;10.70;99.90;;;;;;5030113;28;20642;-75
2023/04/26 11:27:57;;;;;;;4.33;2.47;;;10.70;99.90;;;;;;5029894;28;20216;-74
2023/04/26 11:30:23;;;;;;;6.97;2.50;;;10.90;99.90;;;;;;5045540;28;20266;-75
2023/04/26 11:32:49;;;;;;;7.20;2.40;;;11.00;99.90;;;;;;5030193;28;20216;-74
2023/04/26 11:35:15;;;;;;;8.23;2.70;;;10.90;99.90;;;;;;5028377;28;20204;-73
2023/04/26 11:37:41;;;;;;;8.80;3.20;;;10.80;99.90;;;;;;5025171;28;20219;-73
2023/04/26 11:40:10;;;;;;;7.57;2.67;;;10.60;99.90;;;;;;5029424;28;20208;-74
2023/04/26 11:42:36;;;;;;;6.23;2.90;;;10.90;99.90;;;;;;5028854;28;20187;-74
2023/04/26 11:45:05;;;;;;;8.03;2.47;;;10.90;99.90;;;;;;5030277;28;20204;-74
2023/04/26 11:47:32;;;;;;;7.97;3.53;;;10.80;99.90;;;;;;5029693;28;20205;-74
2023/04/26 11:49:58;;;;;;;7.33;3.10;;;10.60;99.90;;;;;;5029473;28;20208;-75
2023/04/26 11:52:25;;;;;;;6.73;2.53;;;10.60;99.90;;;;;;5029766;28;20703;-74
2023/04/26 11:55:05;;;;;;;7.57;2.40;;;10.50;99.90;;;;;;5030028;28;20181;-75
2023/04/26 11:57:33;;;;;;;5.50;3.17;;;10.50;99.90;;;;;;5030266;28;20298;-75
2023/04/26 12:00:13;;;;;;;6.83;2.37;;;10.50;99.90;;;;;;5029735;28;20208;-75
2023/04/26 12:02:49;;;;;;;13.83;5.63;;;10.60;99.90;;;;;;5029573;28;20211;-75
2023/04/26 12:05:24;;;;;;;5.17;2.17;;;10.80;99.90;;;;;;5030117;28;20203;-75
2023/04/26 12:07:55;;;;;;;4.97;2.10;;;10.80;99.90;;;;;;5028688;28;20254;-75
2023/04/26 12:10:28;;;;;;;5.60;2.13;;;11.00;99.90;;;;;;5029243;28;20222;-74
2023/04/26 12:12:57;;;;;;;7.20;2.30;;;11.00;99.90;;;;;;5029397;28;20245;-76
2023/04/26 12:15:25;;;;;;;5.60;2.70;;;11.20;99.90;;;;;;5030187;28;20180;-74
2023/04/26 12:18:08;;;;;;;4.37;3.00;;;11.30;99.90;;;;;;5030011;28;20224;-75
2023/04/26 12:20:39;;;;;;;5.13;2.20;;;11.00;99.90;;;;;;5028649;28;20632;-73
2023/04/26 12:23:10;;;;;;;5.13;2.97;;;10.90;99.90;;;;;;5029619;28;20262;-73
2023/04/26 12:25:37;;;;;;;6.20;2.87;;;11.20;99.90;;;;;;5029566;28;20725;-74
2023/04/26 12:28:05;;;;;;;9.17;3.00;;;11.10;99.90;;;;;;5028232;28;20578;-74
2023/04/26 12:30:30;;;;;;;5.53;2.50;;;10.80;99.90;;;;;;5029978;28;20667;-74
2023/04/26 12:32:56;;;;;;;6.60;2.43;;;10.60;99.90;;;;;;5029539;28;20278;-75
2023/04/26 12:35:24;;;;;;;13.70;3.40;;;10.60;99.90;;;;;;5029460;28;20744;-75
2023/04/26 12:37:51;;;;;;;4.87;2.70;;;10.70;99.90;;;;;;5029600;28;20212;-75
2023/04/26 12:40:18;;;;;;;7.23;2.93;;;10.60;99.90;;;;;;5030405;28;20235;-72
2023/04/26 12:42:46;;;;;;;8.10;2.53;;;10.70;99.90;;;;;;5033704;28;20176;-75
2023/04/26 12:45:12;;;;;;;6.07;2.53;;;10.70;99.90;;;;;;5033593;28;20236;-75
2023/04/26 12:47:37;;;;;;;5.80;2.43;;;10.40;99.90;;;;;;5032878;28;20254;-75
2023/04/26 12:50:04;;;;;;;4.23;2.40;;;10.60;99.90;;;;;;5032506;28;20244;-74
2023/04/26 12:52:31;;;;;;;6.30;2.47;;;10.70;99.90;;;;;;5032671;28;20589;-74